sensor_id;sensor_type;location;lat;lon;timestamp;pressure;altitude;pressure_sealevel;temperature;humidity
34979;BME280;21185;50.978;13.720;2023-07-13T00:02:10;98003.47;;;24.21;45.34
34979;BME280;21185;50.978;13.720;2023-07-13T00:07:13;98006.13;;;24.21;45.31
34979;BME280;21185;50.978;13.720;2023-07-13T00:12:27;98015.13;;;24.20;45.39
34979;BME280;21185;50.978;13.720;2023-07-13T00:17:31;98029.44;;;24.19;45.28
34979;BME280;21185;50.978;13.720;2023-07-13T00:22:34;98064.66;;;24.14;45.00
34979;BME280;21185;50.978;13.720;2023-07-13T00:27:41;98073.91;;;24.12;45.11
34979;BME280;21185;50.978;13.720;2023-07-13T00:32:44;98077.06;;;24.09;45.02
34979;BME280;21185;50.978;13.720;2023-07-13T00:37:47;98108.31;;;24.02;45.37
34979;BME280;21185;50.978;13.720;2023-07-13T00:42:51;98127.00;;;23.90;45.53
34979;BME280;21185;50.978;13.720;2023-07-13T00:47:54;98140.66;;;23.77;45.90
34979;BME280;21185;50.978;13.720;2023-07-13T00:53:04;98098.13;;;23.62;46.00
34979;BME280;21185;50.978;13.720;2023-07-13T00:58:06;98072.03;;;23.48;46.19
34979;BME280;21185;50.978;13.720;2023-07-13T01:03:10;98037.69;;;23.32;46.33
34979;BME280;21185;50.978;13.720;2023-07-13T01:08:12;98042.84;;;23.16;46.65
34979;BME280;21185;50.978;13.720;2023-07-13T01:13:15;98041.13;;;23.05;46.74
34979;BME280;21185;50.978;13.720;2023-07-13T01:18:22;98056.38;;;22.98;46.97
34979;BME280;21185;50.978;13.720;2023-07-13T01:23:29;98054.19;;;22.90;46.86
34979;BME280;21185;50.978;13.720;2023-07-13T01:28:33;98046.66;;;22.82;47.02
34979;BME280;21185;50.978;13.720;2023-07-13T01:33:40;98042.75;;;22.68;47.04
34979;BME280;21185;50.978;13.720;2023-07-13T01:38:43;98047.69;;;22.59;47.33
34979;BME280;21185;50.978;13.720;2023-07-13T01:43:46;98056.81;;;22.51;47.34
34979;BME280;21185;50.978;13.720;2023-07-13T01:48:48;98049.63;;;22.47;47.64
34979;BME280;21185;50.978;13.720;2023-07-13T01:53:50;98044.59;;;22.45;47.60
34979;BME280;21185;50.978;13.720;2023-07-13T01:58:52;98030.00;;;22.43;47.65
34979;BME280;21185;50.978;13.720;2023-07-13T02:03:54;98034.75;;;22.41;47.44
34979;BME280;21185;50.978;13.720;2023-07-13T02:08:57;98042.13;;;22.39;47.52
34979;BME280;21185;50.978;13.720;2023-07-13T02:13:59;98034.66;;;22.36;47.79
34979;BME280;21185;50.978;13.720;2023-07-13T02:19:03;98028.81;;;22.34;47.82
34979;BME280;21185;50.978;13.720;2023-07-13T02:24:05;98040.69;;;22.31;47.68
34979;BME280;21185;50.978;13.720;2023-07-13T02:29:07;98033.25;;;22.28;48.04
34979;BME280;21185;50.978;13.720;2023-07-13T02:34:08;98028.19;;;22.26;48.12
34979;BME280;21185;50.978;13.720;2023-07-13T02:39:11;98037.16;;;22.25;48.13
34979;BME280;21185;50.978;13.720;2023-07-13T02:44:13;98041.91;;;22.23;47.99
34979;BME280;21185;50.978;13.720;2023-07-13T02:49:15;98040.53;;;22.21;48.29
34979;BME280;21185;50.978;13.720;2023-07-13T02:54:17;98042.63;;;22.19;48.37
34979;BME280;21185;50.978;13.720;2023-07-13T02:59:19;98051.59;;;22.18;48.82
34979;BME280;21185;50.978;13.720;2023-07-13T03:04:21;98052.06;;;22.15;48.57
34979;BME280;21185;50.978;13.720;2023-07-13T03:09:23;98059.38;;;22.08;49.69
34979;BME280;21185;50.978;13.720;2023-07-13T03:14:28;98049.72;;;22.02;49.97
34979;BME280;21185;50.978;13.720;2023-07-13T03:19:31;98037.81;;;21.99;50.23
34979;BME280;21185;50.978;13.720;2023-07-13T03:24:33;98055.97;;;21.95;50.56
34979;BME280;21185;50.978;13.720;2023-07-13T03:29:40;98066.47;;;21.90;50.71
34979;BME280;21185;50.978;13.720;2023-07-13T03:34:42;98057.66;;;21.85;51.04
34979;BME280;21185;50.978;13.720;2023-07-13T03:39:44;98068.22;;;21.85;50.97
34979;BME280;21185;50.978;13.720;2023-07-13T03:44:46;98068.22;;;21.85;50.72
34979;BME280;21185;50.978;13.720;2023-07-13T03:49:54;98065.59;;;21.85;50.98
34979;BME280;21185;50.978;13.720;2023-07-13T03:54:56;98063.19;;;21.83;51.12
34979;BME280;21185;50.978;13.720;2023-07-13T03:59:59;98064.22;;;21.82;50.86
34979;BME280;21185;50.978;13.720;2023-07-13T04:05:00;98085.50;;;21.76;51.86
34979;BME280;21185;50.978;13.720;2023-07-13T04:10:03;98085.19;;;21.72;52.24
34979;BME280;21185;50.978;13.720;2023-07-13T04:15:05;98094.47;;;21.75;52.52
34979;BME280;21185;50.978;13.720;2023-07-13T04:20:07;98101.34;;;21.76;52.84
34979;BME280;21185;50.978;13.720;2023-07-13T04:25:09;98112.94;;;21.75;53.32
34979;BME280;21185;50.978;13.720;2023-07-13T04:30:10;98109.50;;;21.74;53.10
34979;BME280;21185;50.978;13.720;2023-07-13T04:35:12;98104.69;;;21.71;53.00
34979;BME280;21185;50.978;13.720;2023-07-13T04:40:19;98108.22;;;21.77;53.13
34979;BME280;21185;50.978;13.720;2023-07-13T04:45:21;98111.75;;;21.82;53.14
34979;BME280;21185;50.978;13.720;2023-07-13T04:50:25;98110.47;;;21.85;52.85
34979;BME280;21185;50.978;13.720;2023-07-13T04:55:27;98122.88;;;21.84;53.22
34979;BME280;21185;50.978;13.720;2023-07-13T05:00:32;98128.41;;;21.83;53.72
34979;BME280;21185;50.978;13.720;2023-07-13T05:05:33;98134.97;;;21.80;54.34
34979;BME280;21185;50.978;13.720;2023-07-13T05:10:35;98131.06;;;21.83;53.85
34979;BME280;21185;50.978;13.720;2023-07-13T05:15:37;98129.31;;;21.88;53.68
34979;BME280;21185;50.978;13.720;2023-07-13T05:20:39;98127.31;;;21.95;53.52
34979;BME280;21185;50.978;13.720;2023-07-13T05:25:41;98131.59;;;22.13;53.24
34979;BME280;21185;50.978;13.720;2023-07-13T05:30:46;98132.81;;;22.22;53.21
34979;BME280;21185;50.978;13.720;2023-07-13T05:35:48;98130.47;;;22.26;53.54
34979;BME280;21185;50.978;13.720;2023-07-13T05:40:50;98133.19;;;22.31;53.39
34979;BME280;21185;50.978;13.720;2023-07-13T05:45:53;98132.47;;;22.36;53.28
34979;BME280;21185;50.978;13.720;2023-07-13T05:50:55;98127.50;;;22.39;53.75
34979;BME280;21185;50.978;13.720;2023-07-13T05:55:56;98137.75;;;22.52;53.78
34979;BME280;21185;50.978;13.720;2023-07-13T06:01:06;98134.28;;;22.69;53.62
34979;BME280;21185;50.978;13.720;2023-07-13T06:06:10;98130.59;;;22.70;53.62
34979;BME280;21185;50.978;13.720;2023-07-13T06:11:17;98140.94;;;22.71;53.57
34979;BME280;21185;50.978;13.720;2023-07-13T06:16:20;98150.22;;;22.74;53.92
34979;BME280;21185;50.978;13.720;2023-07-13T06:21:22;98156.50;;;22.84;54.10
34979;BME280;21185;50.978;13.720;2023-07-13T06:26:24;98158.47;;;22.94;54.04
34979;BME280;21185;50.978;13.720;2023-07-13T06:31:26;98151.97;;;23.02;54.53
34979;BME280;21185;50.978;13.720;2023-07-13T06:36:28;98150.78;;;23.14;54.09
34979;BME280;21185;50.978;13.720;2023-07-13T06:41:30;98158.25;;;23.17;54.07
34979;BME280;21185;50.978;13.720;2023-07-13T06:46:32;98166.31;;;23.27;54.09
34979;BME280;21185;50.978;13.720;2023-07-13T06:51:34;98167.03;;;23.45;54.25
34979;BME280;21185;50.978;13.720;2023-07-13T06:56:36;98179.25;;;23.46;53.92
34979;BME280;21185;50.978;13.720;2023-07-13T07:01:38;98180.41;;;23.33;53.86
34979;BME280;21185;50.978;13.720;2023-07-13T07:06:42;98190.69;;;23.30;53.89
34979;BME280;21185;50.978;13.720;2023-07-13T07:11:45;98197.09;;;23.34;53.82
34979;BME280;21185;50.978;13.720;2023-07-13T07:17:03;98185.34;;;23.46;53.70
34979;BME280;21185;50.978;13.720;2023-07-13T07:22:04;98191.50;;;23.52;53.17
34979;BME280;21185;50.978;13.720;2023-07-13T07:27:06;98190.31;;;23.43;53.00
34979;BME280;21185;50.978;13.720;2023-07-13T07:32:11;98197.41;;;23.37;52.90
34979;BME280;21185;50.978;13.720;2023-07-13T07:37:33;98196.19;;;23.45;52.65
34979;BME280;21185;50.978;13.720;2023-07-13T07:42:38;98188.56;;;23.70;52.02
34979;BME280;21185;50.978;13.720;2023-07-13T07:47:39;98184.41;;;24.06;51.71
34979;BME280;21185;50.978;13.720;2023-07-13T07:52:41;98181.72;;;24.28;51.07
34979;BME280;21185;50.978;13.720;2023-07-13T07:57:45;98184.63;;;24.27;50.13
34979;BME280;21185;50.978;13.720;2023-07-13T08:02:50;98181.66;;;24.23;50.04
34979;BME280;21185;50.978;13.720;2023-07-13T08:07:55;98183.69;;;24.43;49.64
34979;BME280;21185;50.978;13.720;2023-07-13T08:12:57;98193.97;;;24.71;49.81
34979;BME280;21185;50.978;13.720;2023-07-13T08:18:02;98186.16;;;24.92;49.64
34979;BME280;21185;50.978;13.720;2023-07-13T08:23:05;98195.97;;;24.91;49.58
34979;BME280;21185;50.978;13.720;2023-07-13T08:28:07;98200.28;;;24.97;49.35
34979;BME280;21185;50.978;13.720;2023-07-13T08:33:08;98198.28;;;25.20;49.02
34979;BME280;21185;50.978;13.720;2023-07-13T08:38:10;98201.53;;;25.32;47.80
34979;BME280;21185;50.978;13.720;2023-07-13T08:43:16;98195.75;;;25.50;47.52
34979;BME280;21185;50.978;13.720;2023-07-13T08:48:53;98199.56;;;25.69;47.17
34979;BME280;21185;50.978;13.720;2023-07-13T08:53:48;98198.03;;;25.94;47.36
34979;BME280;21185;50.978;13.720;2023-07-13T08:59:33;98200.94;;;26.02;47.51
34979;BME280;21185;50.978;13.720;2023-07-13T09:04:19;98206.25;;;25.82;47.52
34979;BME280;21185;50.978;13.720;2023-07-13T09:19:36;98223.28;;;25.91;47.23
34979;BME280;21185;50.978;13.720;2023-07-13T09:24:41;98218.75;;;26.02;45.65
34979;BME280;21185;50.978;13.720;2023-07-13T09:29:58;98223.00;;;26.03;45.50
34979;BME280;21185;50.978;13.720;2023-07-13T09:35:05;98231.47;;;25.79;45.09
34979;BME280;21185;50.978;13.720;2023-07-13T09:40:28;98232.78;;;25.67;43.84
34979;BME280;21185;50.978;13.720;2023-07-13T09:45:34;98235.59;;;25.50;43.87
34979;BME280;21185;50.978;13.720;2023-07-13T09:50:38;98246.75;;;25.47;44.50
34979;BME280;21185;50.978;13.720;2023-07-13T09:55:40;98248.59;;;25.46;43.71
34979;BME280;21185;50.978;13.720;2023-07-13T10:00:43;98244.91;;;25.53;43.15
34979;BME280;21185;50.978;13.720;2023-07-13T10:05:46;98244.66;;;25.59;42.20
34979;BME280;21185;50.978;13.720;2023-07-13T10:10:52;98244.25;;;25.83;41.84
34979;BME280;21185;50.978;13.720;2023-07-13T10:15:57;98240.28;;;25.90;41.42
34979;BME280;21185;50.978;13.720;2023-07-13T10:21:08;98244.78;;;25.79;41.54
34979;BME280;21185;50.978;13.720;2023-07-13T10:26:32;98251.72;;;25.86;42.18
34979;BME280;21185;50.978;13.720;2023-07-13T10:31:36;98257.84;;;26.01;41.72
34979;BME280;21185;50.978;13.720;2023-07-13T10:36:43;98254.41;;;25.96;40.95
34979;BME280;21185;50.978;13.720;2023-07-13T10:41:47;98248.53;;;25.89;40.84
34979;BME280;21185;50.978;13.720;2023-07-13T10:46:52;98245.34;;;26.07;40.87
34979;BME280;21185;50.978;13.720;2023-07-13T10:51:55;98228.59;;;26.11;41.01
34979;BME280;21185;50.978;13.720;2023-07-13T11:02:35;98225.75;;;26.33;40.49
34979;BME280;21185;50.978;13.720;2023-07-13T11:07:51;98224.94;;;26.43;40.29
34979;BME280;21185;50.978;13.720;2023-07-13T11:12:54;98224.16;;;26.53;39.94
34979;BME280;21185;50.978;13.720;2023-07-13T11:17:56;98224.66;;;26.75;40.02
34979;BME280;21185;50.978;13.720;2023-07-13T11:28:21;98226.28;;;26.51;39.35
34979;BME280;21185;50.978;13.720;2023-07-13T11:38:34;98232.66;;;26.80;38.32
34979;BME280;21185;50.978;13.720;2023-07-13T11:43:37;98221.75;;;26.66;38.67
34979;BME280;21185;50.978;13.720;2023-07-13T11:48:39;98223.06;;;26.64;38.89
34979;BME280;21185;50.978;13.720;2023-07-13T11:53:45;98222.28;;;26.63;38.51
34979;BME280;21185;50.978;13.720;2023-07-13T11:58:48;98226.00;;;26.67;38.76
34979;BME280;21185;50.978;13.720;2023-07-13T12:03:51;98220.94;;;26.76;38.13
34979;BME280;21185;50.978;13.720;2023-07-13T12:09:00;98210.81;;;26.83;38.22
34979;BME280;21185;50.978;13.720;2023-07-13T12:14:02;98215.06;;;26.89;37.83
34979;BME280;21185;50.978;13.720;2023-07-13T12:19:09;98201.50;;;26.91;37.63
34979;BME280;21185;50.978;13.720;2023-07-13T12:24:17;98207.09;;;26.99;37.84
34979;BME280;21185;50.978;13.720;2023-07-13T12:29:19;98214.00;;;26.85;37.68
34979;BME280;21185;50.978;13.720;2023-07-13T12:34:22;98211.63;;;26.73;37.88
34979;BME280;21185;50.978;13.720;2023-07-13T12:44:32;98205.25;;;26.49;38.24
34979;BME280;21185;50.978;13.720;2023-07-13T12:49:34;98221.75;;;26.41;38.86
34979;BME280;21185;50.978;13.720;2023-07-13T12:54:41;98211.38;;;26.60;38.60
34979;BME280;21185;50.978;13.720;2023-07-13T12:59:57;98205.22;;;26.79;38.33
34979;BME280;21185;50.978;13.720;2023-07-13T13:04:59;98200.69;;;26.80;37.85
34979;BME280;21185;50.978;13.720;2023-07-13T13:10:01;98208.69;;;26.75;37.88
34979;BME280;21185;50.978;13.720;2023-07-13T13:15:03;98200.44;;;26.76;37.49
34979;BME280;21185;50.978;13.720;2023-07-13T13:20:15;98206.81;;;26.81;36.87
34979;BME280;21185;50.978;13.720;2023-07-13T13:25:17;98203.91;;;26.72;37.06
34979;BME280;21185;50.978;13.720;2023-07-13T13:30:19;98204.72;;;26.62;37.23
34979;BME280;21185;50.978;13.720;2023-07-13T13:35:23;98202.84;;;26.68;37.15
34979;BME280;21185;50.978;13.720;2023-07-13T13:40:25;98198.88;;;26.55;36.25
34979;BME280;21185;50.978;13.720;2023-07-13T13:45:28;98201.78;;;26.49;35.96
34979;BME280;21185;50.978;13.720;2023-07-13T13:50:31;98209.25;;;26.41;35.15
34979;BME280;21185;50.978;13.720;2023-07-13T13:55:33;98212.97;;;26.35;35.03
34979;BME280;21185;50.978;13.720;2023-07-13T14:00:35;98197.81;;;26.36;35.12
34979;BME280;21185;50.978;13.720;2023-07-13T14:05:37;98199.13;;;26.49;35.58
34979;BME280;21185;50.978;13.720;2023-07-13T14:10:39;98207.63;;;26.71;35.05
34979;BME280;21185;50.978;13.720;2023-07-13T14:15:41;98199.63;;;26.86;35.19
34979;BME280;21185;50.978;13.720;2023-07-13T14:20:47;98209.75;;;26.84;35.31
34979;BME280;21185;50.978;13.720;2023-07-13T14:25:49;98201.75;;;26.89;34.80
34979;BME280;21185;50.978;13.720;2023-07-13T14:30:52;98192.44;;;26.97;34.93
34979;BME280;21185;50.978;13.720;2023-07-13T14:35:56;98191.38;;;26.98;35.08
34979;BME280;21185;50.978;13.720;2023-07-13T14:40:58;98184.97;;;27.04;34.81
34979;BME280;21185;50.978;13.720;2023-07-13T14:46:00;98195.63;;;26.94;33.98
34979;BME280;21185;50.978;13.720;2023-07-13T14:51:02;98192.75;;;26.65;33.63
34979;BME280;21185;50.978;13.720;2023-07-13T14:56:11;98206.31;;;26.43;33.76
34979;BME280;21185;50.978;13.720;2023-07-13T15:01:14;98204.47;;;26.38;34.16
34979;BME280;21185;50.978;13.720;2023-07-13T15:06:18;98203.13;;;26.51;34.38
34979;BME280;21185;50.978;13.720;2023-07-13T15:11:21;98208.44;;;26.61;34.58
34979;BME280;21185;50.978;13.720;2023-07-13T15:16:23;98198.88;;;26.65;34.39
34979;BME280;21185;50.978;13.720;2023-07-13T15:21:26;98194.59;;;26.74;34.66
34979;BME280;21185;50.978;13.720;2023-07-13T15:26:33;98203.63;;;26.78;34.36
34979;BME280;21185;50.978;13.720;2023-07-13T15:31:35;98200.44;;;26.76;33.65
34979;BME280;21185;50.978;13.720;2023-07-13T15:36:38;98206.56;;;26.72;33.55
34979;BME280;21185;50.978;13.720;2023-07-13T15:41:41;98204.44;;;26.69;33.42
34979;BME280;21185;50.978;13.720;2023-07-13T15:46:46;98200.47;;;26.56;33.10
34979;BME280;21185;50.978;13.720;2023-07-13T15:51:48;98196.22;;;26.55;32.97
34979;BME280;21185;50.978;13.720;2023-07-13T15:56:53;98208.97;;;26.58;32.87
34979;BME280;21185;50.978;13.720;2023-07-13T16:01:57;98206.84;;;26.55;32.36
34979;BME280;21185;50.978;13.720;2023-07-13T16:06:59;98210.03;;;26.52;32.24
34979;BME280;21185;50.978;13.720;2023-07-13T16:12:00;98201.78;;;26.49;32.49
34979;BME280;21185;50.978;13.720;2023-07-13T16:17:02;98219.88;;;26.36;32.49
34979;BME280;21185;50.978;13.720;2023-07-13T16:22:05;98214.25;;;26.28;32.22
34979;BME280;21185;50.978;13.720;2023-07-13T16:27:08;98218.25;;;26.30;31.63
34979;BME280;21185;50.978;13.720;2023-07-13T16:32:13;98226.28;;;26.35;31.94
34979;BME280;21185;50.978;13.720;2023-07-13T16:37:18;98227.59;;;26.33;32.05
34979;BME280;21185;50.978;13.720;2023-07-13T16:42:20;98235.00;;;26.21;32.06
34979;BME280;21185;50.978;13.720;2023-07-13T16:47:22;98245.38;;;26.12;31.97
34979;BME280;21185;50.978;13.720;2023-07-13T16:52:27;98245.09;;;26.08;31.94
34979;BME280;21185;50.978;13.720;2023-07-13T16:57:31;98244.28;;;26.03;32.22
34979;BME280;21185;50.978;13.720;2023-07-13T17:02:36;98253.88;;;25.99;32.07
34979;BME280;21185;50.978;13.720;2023-07-13T17:07:40;98260.22;;;25.93;32.58
34979;BME280;21185;50.978;13.720;2023-07-13T17:12:44;98260.75;;;25.90;32.47
34979;BME280;21185;50.978;13.720;2023-07-13T17:17:47;98259.94;;;25.84;33.04
34979;BME280;21185;50.978;13.720;2023-07-13T17:22:50;98261.78;;;25.78;33.02
34979;BME280;21185;50.978;13.720;2023-07-13T17:27:52;98272.41;;;25.73;33.13
34979;BME280;21185;50.978;13.720;2023-07-13T17:32:54;98270.78;;;25.67;32.90
34979;BME280;21185;50.978;13.720;2023-07-13T17:37:57;98276.56;;;25.64;32.71
34979;BME280;21185;50.978;13.720;2023-07-13T17:43:00;98270.44;;;25.59;32.53
34979;BME280;21185;50.978;13.720;2023-07-13T17:48:02;98283.41;;;25.50;32.81
34979;BME280;21185;50.978;13.720;2023-07-13T17:58:08;98286.50;;;25.32;33.30
34979;BME280;21185;50.978;13.720;2023-07-13T18:03:17;98298.16;;;25.26;33.49
34979;BME280;21185;50.978;13.720;2023-07-13T18:08:22;98290.66;;;25.17;33.63
34979;BME280;21185;50.978;13.720;2023-07-13T18:13:25;98289.28;;;25.10;33.83
34979;BME280;21185;50.978;13.720;2023-07-13T18:18:31;98294.81;;;25.03;33.83
34979;BME280;21185;50.978;13.720;2023-07-13T18:23:35;98307.00;;;24.99;33.88
34979;BME280;21185;50.978;13.720;2023-07-13T18:28:37;98311.44;;;24.94;33.92
34979;BME280;21185;50.978;13.720;2023-07-13T18:33:41;98311.91;;;24.85;34.08
34979;BME280;21185;50.978;13.720;2023-07-13T18:38:47;98315.53;;;24.74;34.20
34979;BME280;21185;50.978;13.720;2023-07-13T18:43:49;98315.19;;;24.66;34.25
34979;BME280;21185;50.978;13.720;2023-07-13T18:48:54;98321.19;;;24.56;34.44
34979;BME280;21185;50.978;13.720;2023-07-13T18:53:56;98331.72;;;24.46;34.55
34979;BME280;21185;50.978;13.720;2023-07-13T18:58:57;98334.00;;;24.37;34.84
34979;BME280;21185;50.978;13.720;2023-07-13T19:03:59;98346.38;;;24.27;35.20
34979;BME280;21185;50.978;13.720;2023-07-13T19:09:04;98354.97;;;24.17;34.85
34979;BME280;21185;50.978;13.720;2023-07-13T19:14:10;98358.56;;;24.06;35.01
34979;BME280;21185;50.978;13.720;2023-07-13T19:19:13;98369.28;;;23.94;35.40
34979;BME280;21185;50.978;13.720;2023-07-13T19:24:20;98375.25;;;23.84;35.41
34979;BME280;21185;50.978;13.720;2023-07-13T19:29:24;98383.53;;;23.71;35.48
34979;BME280;21185;50.978;13.720;2023-07-13T19:34:27;98391.91;;;23.63;35.56
34979;BME280;21185;50.978;13.720;2023-07-13T19:39:33;98395.78;;;23.55;35.73
34979;BME280;21185;50.978;13.720;2023-07-13T19:44:35;98397.50;;;23.50;35.70
34979;BME280;21185;50.978;13.720;2023-07-13T19:49:40;98406.75;;;23.47;35.89
34979;BME280;21185;50.978;13.720;2023-07-13T19:54:42;98409.06;;;23.44;36.04
34979;BME280;21185;50.978;13.720;2023-07-13T19:59:45;98412.75;;;23.43;36.14
34979;BME280;21185;50.978;13.720;2023-07-13T20:04:53;98424.88;;;23.39;36.26
34979;BME280;21185;50.978;13.720;2023-07-13T20:10:18;98417.91;;;23.33;36.07
34979;BME280;21185;50.978;13.720;2023-07-13T20:15:23;98428.72;;;23.31;36.53
34979;BME280;21185;50.978;13.720;2023-07-13T20:25:34;98437.47;;;23.32;36.07
34979;BME280;21185;50.978;13.720;2023-07-13T20:30:37;98435.88;;;23.31;36.15
34979;BME280;21185;50.978;13.720;2023-07-13T20:35:39;98442.44;;;23.28;36.17
34979;BME280;21185;50.978;13.720;2023-07-13T20:40:42;98451.66;;;23.25;36.11
34979;BME280;21185;50.978;13.720;2023-07-13T20:45:48;98448.69;;;23.22;36.10
34979;BME280;21185;50.978;13.720;2023-07-13T20:50:53;98463.44;;;23.18;36.19
34979;BME280;21185;50.978;13.720;2023-07-13T20:55:56;98462.56;;;23.12;36.54
34979;BME280;21185;50.978;13.720;2023-07-13T21:00:58;98457.19;;;23.07;36.33
34979;BME280;21185;50.978;13.720;2023-07-13T21:06:34;98462.16;;;23.04;36.46
34979;BME280;21185;50.978;13.720;2023-07-13T21:11:30;98472.16;;;23.02;36.39
34979;BME280;21185;50.978;13.720;2023-07-13T21:16:32;98473.44;;;22.99;36.33
34979;BME280;21185;50.978;13.720;2023-07-13T21:21:34;98480.47;;;22.93;36.38
34979;BME280;21185;50.978;13.720;2023-07-13T21:26:36;98481.19;;;22.89;36.72
34979;BME280;21185;50.978;13.720;2023-07-13T21:31:38;98499.63;;;22.84;36.76
34979;BME280;21185;50.978;13.720;2023-07-13T21:36:39;98511.09;;;22.78;36.99
34979;BME280;21185;50.978;13.720;2023-07-13T21:41:41;98516.19;;;22.68;36.91
34979;BME280;21185;50.978;13.720;2023-07-13T21:46:44;98516.56;;;22.59;37.20
34979;BME280;21185;50.978;13.720;2023-07-13T21:51:46;98530.25;;;22.56;37.28
34979;BME280;21185;50.978;13.720;2023-07-13T21:56:48;98536.00;;;22.53;37.34
34979;BME280;21185;50.978;13.720;2023-07-13T22:01:50;98539.69;;;22.52;37.41
34979;BME280;21185;50.978;13.720;2023-07-13T22:06:52;98540.97;;;22.50;37.51
34979;BME280;21185;50.978;13.720;2023-07-13T22:11:57;98545.09;;;22.46;37.63
34979;BME280;21185;50.978;13.720;2023-07-13T22:16:59;98552.69;;;22.42;37.93
34979;BME280;21185;50.978;13.720;2023-07-13T22:22:01;98552.13;;;22.40;37.97
34979;BME280;21185;50.978;13.720;2023-07-13T22:27:03;98548.56;;;22.35;38.05
34979;BME280;21185;50.978;13.720;2023-07-13T22:32:06;98555.56;;;22.29;38.31
34979;BME280;21185;50.978;13.720;2023-07-13T22:37:09;98548.34;;;22.24;38.33
34979;BME280;21185;50.978;13.720;2023-07-13T22:42:11;98560.41;;;22.20;38.27
34979;BME280;21185;50.978;13.720;2023-07-13T22:47:16;98567.97;;;22.17;38.28
34979;BME280;21185;50.978;13.720;2023-07-13T22:52:18;98574.19;;;22.11;38.42
34979;BME280;21185;50.978;13.720;2023-07-13T22:57:20;98573.63;;;22.09;38.30
34979;BME280;21185;50.978;13.720;2023-07-13T23:02:22;98576.47;;;22.07;38.65
34979;BME280;21185;50.978;13.720;2023-07-13T23:07:24;98576.72;;;22.06;38.69
34979;BME280;21185;50.978;13.720;2023-07-13T23:12:27;98572.88;;;22.02;38.69
34979;BME280;21185;50.978;13.720;2023-07-13T23:17:32;98580.91;;;21.95;38.93
34979;BME280;21185;50.978;13.720;2023-07-13T23:22:33;98581.25;;;21.87;38.93
34979;BME280;21185;50.978;13.720;2023-07-13T23:27:35;98577.22;;;21.84;39.07
34979;BME280;21185;50.978;13.720;2023-07-13T23:32:37;98574.59;;;21.84;39.01
34979;BME280;21185;50.978;13.720;2023-07-13T23:37:40;98557.56;;;21.80;38.89
34979;BME280;21185;50.978;13.720;2023-07-13T23:42:42;98570.66;;;21.75;39.39
34979;BME280;21185;50.978;13.720;2023-07-13T23:47:45;98573.41;;;21.69;39.41
34979;BME280;21185;50.978;13.720;2023-07-13T23:52:47;98587.16;;;21.59;39.21
34979;BME280;21185;50.978;13.720;2023-07-13T23:57:50;98591.72;;;21.52;39.44
